Terminal Aerodrome Forecast
Issued by NWS Blacksburg, VA

Home | Current Version | Previous Version | Text Only | Print | Product List | Glossary On
Versions: 1 2 3 4 5 6 7 8 9 10 11 12 13 14
000
FTUS41 KRNK 231142
TAFDAN
TAF
KDAN 231142Z 2312/2412 21005KT P6SM SCT110
      TEMPO 2312/2313 5SM BR
     FM231400 25005KT P6SM SCT050
     FM231800 29005KT P6SM VCTS BKN045CB
     FM240000 02006KT P6SM BKN045=

USA.gov is the U.S. government's official web portal to all federal, state and local government web resources and services.